Time;durP1;ratioP1;P1;durP2;ratioP2;P2;SDS_P1;SDS_P2;PMS_P1;PMS_P2;Temp;Humidity;BMP_temperature;BMP_pressure;BME280_temperature;BME280_humidity;BME280_pressure;Samples;Min_cycle;Max_cycle;Signal;HPM_P1;HPM_P2
2024/01/25 00:00:51;;;;;;;17.40;5.50;;;11.50;99.90;;;;;;5075640;28;20173;-66
2024/01/25 00:03:17;;;;;;;16.80;4.90;;;11.50;99.90;;;;;;5075065;28;20609;-65
2024/01/25 00:05:43;;;;;;;16.80;5.50;;;11.50;99.90;;;;;;5075389;28;20201;-65
2024/01/25 00:08:09;;;;;;;13.87;4.40;;;11.50;99.90;;;;;;5075173;28;20186;-65
2024/01/25 00:10:34;;;;;;;13.50;4.63;;;11.60;99.90;;;;;;5075166;28;20505;-65
2024/01/25 00:13:00;;;;;;;14.67;5.13;;;11.50;99.90;;;;;;5075149;28;20173;-66
2024/01/25 00:15:25;;;;;;;21.40;5.17;;;11.30;99.90;;;;;;5075513;28;20178;-65
2024/01/25 00:17:51;;;;;;;17.20;5.40;;;11.40;99.90;;;;;;5075130;28;20724;-65
2024/01/25 00:20:16;;;;;;;16.73;5.33;;;11.40;99.90;;;;;;5075406;28;20267;-65
2024/01/25 00:22:42;;;;;;;14.43;5.47;;;11.40;99.90;;;;;;5075112;28;20190;-64
2024/01/25 00:25:07;;;;;;;15.77;4.63;;;11.40;99.90;;;;;;5075394;28;20589;-65
2024/01/25 00:27:33;;;;;;;15.27;4.20;;;11.30;99.90;;;;;;5074877;28;20270;-64
2024/01/25 00:29:59;;;;;;;19.40;4.93;;;11.30;99.90;;;;;;5075076;28;20206;-64
2024/01/25 00:32:25;;;;;;;18.93;5.20;;;11.30;99.90;;;;;;5075369;28;20174;-64
2024/01/25 00:34:50;;;;;;;16.87;5.63;;;11.30;99.90;;;;;;5075183;28;20166;-65
2024/01/25 00:37:17;;;;;;;17.03;4.40;;;11.30;99.90;;;;;;5075131;28;20226;-65
2024/01/25 00:39:43;;;;;;;18.07;6.73;;;11.40;99.90;;;;;;5073957;28;20274;-65
2024/01/25 00:42:12;;;;;;;15.13;5.80;;;11.40;99.90;;;;;;5074474;28;20836;-65
2024/01/25 00:44:38;;;;;;;17.30;4.70;;;11.40;99.90;;;;;;5074571;28;20174;-65
2024/01/25 00:47:04;;;;;;;14.60;5.23;;;11.40;99.90;;;;;;5075072;28;20503;-64
2024/01/25 00:49:30;;;;;;;18.70;6.03;;;11.40;99.90;;;;;;5074617;28;20193;-65
2024/01/25 00:52:02;;;;;;;13.80;4.63;;;11.40;99.90;;;;;;5074556;28;20179;-65
2024/01/25 00:54:28;;;;;;;23.27;5.97;;;11.40;99.90;;;;;;5074086;28;20249;-67
2024/01/25 00:56:54;;;;;;;17.60;5.10;;;11.40;99.90;;;;;;5074571;28;20430;-65
2024/01/25 00:59:20;;;;;;;22.50;5.80;;;11.40;99.90;;;;;;5074608;28;20888;-65
2024/01/25 01:01:52;;;;;;;13.27;4.60;;;11.40;99.90;;;;;;5074141;28;20184;-65
2024/01/25 01:04:18;;;;;;;21.40;6.03;;;11.40;99.90;;;;;;5074194;28;20409;-65
2024/01/25 01:06:44;;;;;;;20.03;4.97;;;11.40;99.90;;;;;;5074096;28;20419;-65
2024/01/25 01:09:09;;;;;;;22.70;6.40;;;11.40;99.90;;;;;;5074228;28;20294;-65
2024/01/25 01:11:36;;;;;;;17.27;4.83;;;11.40;99.90;;;;;;5073973;28;20480;-65
2024/01/25 01:14:02;;;;;;;18.37;4.93;;;11.50;99.90;;;;;;5073990;28;20171;-66
2024/01/25 01:16:30;;;;;;;18.30;5.00;;;11.40;99.90;;;;;;5074540;28;20404;-66
2024/01/25 01:18:56;;;;;;;16.43;4.53;;;11.40;99.90;;;;;;5074180;28;20191;-65
2024/01/25 01:21:21;;;;;;;17.53;4.80;;;11.50;99.90;;;;;;5073864;28;20486;-66
2024/01/25 01:23:47;;;;;;;14.83;4.87;;;11.40;99.90;;;;;;5073836;28;20583;-64
2024/01/25 01:26:12;;;;;;;17.70;6.93;;;11.50;99.90;;;;;;5072041;28;20654;-64
2024/01/25 01:28:38;;;;;;;19.00;4.80;;;11.40;99.90;;;;;;5054989;28;20613;-66
2024/01/25 01:31:03;;;;;;;13.40;4.53;;;11.40;99.90;;;;;;5053996;28;20182;-66
2024/01/25 01:33:29;;;;;;;16.90;4.90;;;11.50;99.90;;;;;;5072820;28;20178;-66
2024/01/25 01:35:54;;;;;;;17.30;4.67;;;11.40;99.90;;;;;;5073592;28;20175;-64
2024/01/25 01:38:20;;;;;;;19.87;4.73;;;11.40;99.90;;;;;;5073712;28;20197;-66
2024/01/25 01:40:46;;;;;;;16.03;5.20;;;11.40;99.90;;;;;;5073505;28;20168;-65
2024/01/25 01:43:19;;;;;;;20.03;4.80;;;11.40;99.90;;;;;;5073434;28;20266;-65
2024/01/25 01:45:45;;;;;;;22.23;6.00;;;11.40;99.90;;;;;;5073485;28;20414;-65
2024/01/25 01:48:11;;;;;;;15.10;4.23;;;11.30;99.90;;;;;;5073155;28;20447;-65
2024/01/25 01:50:37;;;;;;;19.23;4.90;;;11.30;99.90;;;;;;5073389;28;20587;-65
2024/01/25 01:53:03;;;;;;;12.23;4.30;;;11.30;99.90;;;;;;5072626;28;20185;-66
2024/01/25 01:55:29;;;;;;;15.37;5.27;;;11.30;99.90;;;;;;5073269;28;20405;-66
2024/01/25 01:57:55;;;;;;;15.60;4.93;;;11.30;99.90;;;;;;5073201;28;20432;-66
2024/01/25 02:00:21;;;;;;;14.33;5.33;;;11.30;99.90;;;;;;5073463;28;20778;-66
2024/01/25 02:02:47;;;;;;;14.87;4.50;;;11.30;99.90;;;;;;5073230;28;20170;-65
2024/01/25 02:05:13;;;;;;;13.80;5.03;;;11.30;99.90;;;;;;5073147;28;20201;-66
2024/01/25 02:07:40;;;;;;;22.77;5.17;;;11.20;99.90;;;;;;5073005;28;20457;-66
2024/01/25 02:10:06;;;;;;;19.67;6.10;;;11.30;99.90;;;;;;5073362;28;20188;-66
2024/01/25 02:12:32;;;;;;;14.40;5.07;;;11.30;99.90;;;;;;5072918;28;20436;-66
2024/01/25 02:14:57;;;;;;;14.63;4.80;;;11.30;99.90;;;;;;5073313;28;20440;-65
2024/01/25 02:17:23;;;;;;;15.73;4.77;;;11.30;99.90;;;;;;5072982;28;20619;-66
2024/01/25 02:19:49;;;;;;;18.70;4.60;;;11.30;99.90;;;;;;5073187;28;20542;-65
2024/01/25 02:22:19;;;;;;;15.33;4.00;;;11.30;99.90;;;;;;5072864;28;20174;-66
2024/01/25 02:24:45;;;;;;;15.23;4.00;;;11.30;99.90;;;;;;5072880;28;20174;-65
2024/01/25 02:27:10;;;;;;;16.83;5.40;;;11.20;99.90;;;;;;5072800;28;20474;-66
2024/01/25 02:29:36;;;;;;;13.83;4.43;;;11.30;99.90;;;;;;5072730;28;20192;-66
2024/01/25 02:32:02;;;;;;;16.10;4.40;;;11.20;99.90;;;;;;5072837;28;20162;-65
2024/01/25 02:34:28;;;;;;;14.33;5.10;;;11.30;99.90;;;;;;5072868;28;20396;-65
2024/01/25 02:36:53;;;;;;;13.80;4.47;;;11.30;99.90;;;;;;5073066;28;20227;-65
2024/01/25 02:39:19;;;;;;;21.87;5.40;;;11.30;99.90;;;;;;5072817;28;20210;-65
2024/01/25 02:41:44;;;;;;;18.83;4.83;;;11.20;99.90;;;;;;5072785;28;20165;-65
2024/01/25 02:44:11;;;;;;;18.70;4.57;;;11.30;99.90;;;;;;5073113;28;20637;-65
2024/01/25 02:46:37;;;;;;;12.13;4.43;;;11.20;99.90;;;;;;5072988;28;20182;-65
2024/01/25 02:49:04;;;;;;;15.60;4.43;;;11.20;99.90;;;;;;5054803;28;21047;-66
2024/01/25 02:51:30;;;;;;;20.23;4.90;;;11.20;99.90;;;;;;5072650;28;20479;-65
2024/01/25 02:53:55;;;;;;;16.20;4.57;;;11.20;99.90;;;;;;5072731;28;20169;-65
2024/01/25 02:56:21;;;;;;;12.60;3.97;;;11.20;99.90;;;;;;5072623;28;20188;-66
2024/01/25 02:58:47;;;;;;;14.30;5.10;;;11.10;99.90;;;;;;5072593;28;20207;-66
2024/01/25 03:01:12;;;;;;;14.47;3.87;;;11.10;99.90;;;;;;5072593;28;20178;-66
2024/01/25 03:03:38;;;;;;;16.23;4.47;;;11.20;99.90;;;;;;5056809;28;20637;-66
2024/01/25 03:06:06;;;;;;;14.00;5.37;;;11.20;99.90;;;;;;5077007;28;20163;-66
2024/01/25 03:08:32;;;;;;;13.83;4.60;;;11.20;99.90;;;;;;5076644;28;20419;-65
2024/01/25 03:10:57;;;;;;;7.70;3.60;;;11.20;99.90;;;;;;5076310;28;20448;-64
2024/01/25 03:13:23;;;;;;;16.10;4.80;;;11.20;99.90;;;;;;5076435;28;20311;-66
2024/01/25 03:15:48;;;;;;;19.97;4.33;;;11.20;99.90;;;;;;5076310;28;20167;-66
2024/01/25 03:18:14;;;;;;;12.30;4.40;;;11.20;99.90;;;;;;5076495;28;20724;-65
2024/01/25 03:20:39;;;;;;;17.57;4.50;;;11.20;99.90;;;;;;5076665;28;20624;-66
2024/01/25 03:23:05;;;;;;;14.20;4.27;;;11.10;99.90;;;;;;5076071;28;20228;-66
2024/01/25 03:25:31;;;;;;;18.07;4.67;;;11.10;99.90;;;;;;5076612;28;20240;-62
2024/01/25 03:27:57;;;;;;;14.53;4.60;;;11.00;99.90;;;;;;5076191;28;20210;-66
2024/01/25 03:30:22;;;;;;;12.60;4.70;;;11.00;99.90;;;;;;5076042;28;20534;-65
2024/01/25 03:32:48;;;;;;;20.73;5.03;;;11.00;99.90;;;;;;5068635;28;20254;-65
2024/01/25 03:35:13;;;;;;;8.87;3.57;;;11.00;99.90;;;;;;5056324;28;20170;-65
2024/01/25 03:37:39;;;;;;;13.73;4.07;;;11.10;99.90;;;;;;5056002;28;20192;-65
2024/01/25 03:40:05;;;;;;;14.20;3.93;;;11.10;99.90;;;;;;5056131;28;20629;-65
2024/01/25 03:42:31;;;;;;;15.00;4.73;;;11.10;99.90;;;;;;5064995;28;20227;-63
2024/01/25 03:44:56;;;;;;;15.73;4.67;;;11.10;99.90;;;;;;5075822;28;20943;-65
2024/01/25 03:47:22;;;;;;;16.90;4.57;;;11.10;99.90;;;;;;5076489;28;20206;-65
2024/01/25 03:49:47;;;;;;;17.73;4.30;;;11.10;99.90;;;;;;5075989;28;20284;-65
2024/01/25 03:52:13;;;;;;;10.73;3.73;;;11.10;99.90;;;;;;5076013;28;20180;-64
2024/01/25 03:54:39;;;;;;;18.50;4.80;;;10.90;99.90;;;;;;5075902;28;20166;-65
2024/01/25 03:57:04;;;;;;;12.97;4.80;;;10.90;99.90;;;;;;5075510;28;20166;-66
2024/01/25 03:59:31;;;;;;;16.67;4.37;;;10.90;99.90;;;;;;5075553;28;20198;-66
2024/01/25 04:01:56;;;;;;;13.83;4.40;;;11.00;99.90;;;;;;5075644;28;20177;-66
2024/01/25 04:04:22;;;;;;;14.20;5.10;;;11.10;99.90;;;;;;5075443;28;20403;-65
2024/01/25 04:06:48;;;;;;;16.83;5.50;;;11.00;99.90;;;;;;5075361;28;20204;-64
2024/01/25 04:09:15;;;;;;;14.97;4.83;;;10.90;99.90;;;;;;5075150;28;20201;-66
2024/01/25 04:11:40;;;;;;;18.80;4.93;;;10.80;99.90;;;;;;5075179;28;20205;-65
2024/01/25 04:14:06;;;;;;;14.13;4.63;;;10.90;99.90;;;;;;5074461;28;20438;-64
2024/01/25 04:16:34;;;;;;;11.50;3.80;;;11.00;99.90;;;;;;5075111;28;20636;-65
2024/01/25 04:19:00;;;;;;;13.37;4.63;;;10.90;99.90;;;;;;5075574;28;20198;-66
2024/01/25 04:21:26;;;;;;;10.27;4.17;;;11.00;99.90;;;;;;5075022;28;20405;-66
2024/01/25 04:23:52;;;;;;;13.03;4.13;;;10.80;99.90;;;;;;5075042;28;20447;-66
2024/01/25 04:26:18;;;;;;;14.33;4.33;;;10.80;99.90;;;;;;5075041;28;20411;-64
2024/01/25 04:28:43;;;;;;;14.30;5.33;;;10.90;99.90;;;;;;5074917;28;20193;-65
2024/01/25 04:31:09;;;;;;;16.03;5.23;;;10.80;99.90;;;;;;5075154;28;20248;-66
2024/01/25 04:33:34;;;;;;;12.50;4.60;;;10.80;99.90;;;;;;5074784;28;20176;-65
2024/01/25 04:36:00;;;;;;;13.67;4.87;;;10.80;99.90;;;;;;5075379;28;20162;-65
2024/01/25 04:38:26;;;;;;;12.63;4.00;;;10.80;99.90;;;;;;5074763;28;20198;-64
2024/01/25 04:40:51;;;;;;;18.90;4.67;;;10.80;99.90;;;;;;5075189;28;20166;-66
2024/01/25 04:43:17;;;;;;;17.47;3.87;;;10.70;99.90;;;;;;5074695;28;20690;-65
2024/01/25 04:45:42;;;;;;;13.73;4.00;;;10.80;99.90;;;;;;5074770;28;20162;-65
2024/01/25 04:48:08;;;;;;;15.97;4.50;;;10.70;99.90;;;;;;5074216;28;20752;-65
2024/01/25 04:50:33;;;;;;;19.17;5.03;;;10.60;99.90;;;;;;5056255;28;20687;-65
2024/01/25 04:53:02;;;;;;;13.93;5.30;;;10.50;99.90;;;;;;5074534;28;20174;-65
2024/01/25 04:55:27;;;;;;;12.27;4.30;;;10.50;99.90;;;;;;5074735;28;20161;-66
2024/01/25 04:57:53;;;;;;;12.17;4.93;;;10.60;99.90;;;;;;5074345;28;20416;-65
2024/01/25 05:00:21;;;;;;;15.30;4.93;;;10.50;99.90;;;;;;5074362;28;20173;-66
2024/01/25 05:02:47;;;;;;;14.07;4.73;;;10.50;99.90;;;;;;5074207;28;20175;-65
2024/01/25 05:05:12;;;;;;;24.00;6.50;;;10.50;99.90;;;;;;5074829;28;20398;-65
2024/01/25 05:07:38;;;;;;;19.60;5.13;;;10.50;99.90;;;;;;5074224;28;20538;-66
2024/01/25 05:10:04;;;;;;;17.70;4.53;;;10.60;99.90;;;;;;5074257;28;20314;-65
2024/01/25 05:12:29;;;;;;;14.40;4.60;;;10.60;99.90;;;;;;5074285;28;20158;-65
2024/01/25 05:14:55;;;;;;;19.43;4.87;;;10.50;99.90;;;;;;5074232;28;20487;-65
2024/01/25 05:17:20;;;;;;;13.70;4.33;;;10.40;99.90;;;;;;5073676;28;20186;-65
2024/01/25 05:19:46;;;;;;;18.63;4.20;;;10.30;99.90;;;;;;5065087;28;20178;-66
2024/01/25 05:22:12;;;;;;;13.93;4.23;;;10.20;99.90;;;;;;5064280;28;20175;-65
2024/01/25 05:24:37;;;;;;;8.43;3.23;;;10.20;99.90;;;;;;5063802;28;20732;-65
2024/01/25 05:27:03;;;;;;;20.60;5.60;;;10.10;99.90;;;;;;5064221;28;20188;-65
2024/01/25 05:29:28;;;;;;;18.37;5.10;;;10.10;99.90;;;;;;5063921;28;20608;-65
2024/01/25 05:31:54;;;;;;;16.33;4.70;;;10.10;99.90;;;;;;5064294;28;20177;-62
2024/01/25 05:34:19;;;;;;;20.03;4.77;;;10.10;99.90;;;;;;5063932;28;20195;-63
2024/01/25 05:36:45;;;;;;;13.30;5.00;;;10.10;99.90;;;;;;5064082;28;20190;-65
2024/01/25 05:39:10;;;;;;;15.10;4.30;;;10.10;99.90;;;;;;5063778;28;20282;-64
2024/01/25 05:41:36;;;;;;;14.50;5.03;;;10.00;99.90;;;;;;5063849;28;20213;-66
2024/01/25 05:44:02;;;;;;;15.23;4.60;;;10.00;99.90;;;;;;5063973;28;20178;-65
2024/01/25 05:46:28;;;;;;;18.50;5.80;;;9.90;99.90;;;;;;5072446;28;20170;-66
2024/01/25 05:48:53;;;;;;;17.03;5.00;;;10.00;99.90;;;;;;5073102;28;20205;-65
2024/01/25 05:51:19;;;;;;;15.00;4.87;;;10.00;99.90;;;;;;5073454;28;20223;-65
2024/01/25 05:53:44;;;;;;;19.67;4.00;;;9.90;99.90;;;;;;5073266;28;20628;-65
2024/01/25 05:56:10;;;;;;;15.70;5.13;;;9.90;99.90;;;;;;5073267;28;20165;-65
2024/01/25 05:58:36;;;;;;;12.47;4.57;;;9.90;99.90;;;;;;5073357;28;20592;-65
2024/01/25 06:01:02;;;;;;;12.47;3.97;;;9.90;99.90;;;;;;5073380;28;20168;-64
2024/01/25 06:03:28;;;;;;;13.67;4.87;;;9.90;99.90;;;;;;5073242;28;20174;-65
2024/01/25 06:05:53;;;;;;;17.33;4.70;;;9.80;99.90;;;;;;5073373;28;20410;-65
2024/01/25 06:08:19;;;;;;;19.33;4.90;;;9.80;99.90;;;;;;5072198;28;20222;-64
2024/01/25 06:10:44;;;;;;;18.43;5.20;;;9.70;99.90;;;;;;5053032;28;20262;-64
2024/01/25 06:13:10;;;;;;;14.00;5.57;;;9.80;99.90;;;;;;5065395;28;20593;-66
2024/01/25 06:15:35;;;;;;;10.07;3.90;;;9.70;99.90;;;;;;5073291;28;20158;-66
2024/01/25 06:18:01;;;;;;;16.50;5.47;;;9.70;99.90;;;;;;5072955;28;20263;-66
2024/01/25 06:20:26;;;;;;;13.60;5.77;;;9.70;99.90;;;;;;5073204;28;20207;-66
2024/01/25 06:22:53;;;;;;;14.30;4.70;;;9.70;99.90;;;;;;5072829;28;20176;-65
2024/01/25 06:25:19;;;;;;;20.97;5.30;;;9.70;99.90;;;;;;5073172;28;20168;-64
2024/01/25 06:27:44;;;;;;;13.60;4.57;;;9.70;99.90;;;;;;5073196;28;20427;-66
2024/01/25 06:30:10;;;;;;;16.90;5.60;;;9.70;99.90;;;;;;5066840;28;20568;-66
2024/01/25 06:32:37;;;;;;;14.83;5.43;;;9.60;99.90;;;;;;5069694;28;20161;-66
2024/01/25 06:35:04;;;;;;;20.43;6.00;;;9.50;99.90;;;;;;5073009;28;20411;-65
2024/01/25 06:37:29;;;;;;;13.83;4.80;;;9.50;99.90;;;;;;5074280;28;20502;-65
2024/01/25 06:39:55;;;;;;;19.20;5.17;;;9.50;99.90;;;;;;5079640;28;20433;-66
2024/01/25 06:42:21;;;;;;;16.77;4.50;;;9.50;99.90;;;;;;5079613;28;20167;-65
2024/01/25 06:44:47;;;;;;;14.73;5.40;;;9.50;99.90;;;;;;5078848;28;20173;-66
2024/01/25 06:47:13;;;;;;;15.57;5.00;;;9.60;99.90;;;;;;5079232;28;20429;-66
2024/01/25 06:49:38;;;;;;;17.38;5.20;;;9.60;99.90;;;;;;5078494;28;20505;-68
2024/01/25 06:52:04;;;;;;;25.13;6.20;;;9.60;99.90;;;;;;5079481;28;20173;-66
2024/01/25 06:54:31;;;;;;;15.60;5.60;;;9.50;99.90;;;;;;5079563;28;20215;-66
2024/01/25 06:56:56;;;;;;;25.50;6.30;;;9.50;99.90;;;;;;5079335;28;20492;-67
2024/01/25 06:59:22;;;;;;;21.87;6.13;;;9.50;99.90;;;;;;5079336;28;20825;-66
2024/01/25 07:01:47;;;;;;;20.07;5.40;;;9.40;99.90;;;;;;5079208;28;20281;-66
2024/01/25 07:04:14;;;;;;;21.50;5.50;;;9.30;99.90;;;;;;5078971;28;20576;-66
2024/01/25 07:06:39;;;;;;;21.63;6.37;;;9.40;99.90;;;;;;5078978;28;20245;-65
2024/01/25 07:09:05;;;;;;;22.13;5.50;;;9.40;99.90;;;;;;5078957;28;20457;-66
2024/01/25 07:11:31;;;;;;;13.93;4.60;;;9.50;99.90;;;;;;5079067;28;20259;-65
2024/01/25 07:13:56;;;;;;;15.20;4.67;;;9.60;99.90;;;;;;5079048;28;20484;-64
2024/01/25 07:16:23;;;;;;;19.90;5.20;;;9.60;99.90;;;;;;5061141;28;20171;-63
2024/01/25 07:18:49;;;;;;;17.67;5.83;;;9.60;99.90;;;;;;5079345;28;20605;-67
2024/01/25 07:21:14;;;;;;;19.43;5.17;;;9.50;99.90;;;;;;5079148;28;20400;-65
2024/01/25 07:23:40;;;;;;;18.53;4.70;;;9.50;99.90;;;;;;5079130;28;20604;-64
2024/01/25 07:26:05;;;;;;;18.23;6.03;;;9.30;99.90;;;;;;5079272;28;20258;-66
2024/01/25 07:28:31;;;;;;;25.77;7.43;;;9.30;99.90;;;;;;5066579;28;20271;-67
2024/01/25 07:30:57;;;;;;;16.50;7.37;;;9.10;99.90;;;;;;5057851;28;20195;-67
2024/01/25 07:33:22;;;;;;;16.20;9.53;;;9.10;99.90;;;;;;5072033;28;20946;-67
2024/01/25 07:35:48;;;;;;;17.53;9.97;;;9.00;99.90;;;;;;5079073;28;20171;-65
2024/01/25 07:38:14;;;;;;;21.77;8.30;;;8.90;99.90;;;;;;5079053;28;20185;-65
2024/01/25 07:40:40;;;;;;;16.83;6.27;;;8.70;99.90;;;;;;5079152;28;20181;-65
2024/01/25 07:43:06;;;;;;;18.00;4.83;;;8.80;99.90;;;;;;5078865;28;20437;-65
2024/01/25 07:45:32;;;;;;;17.33;5.50;;;8.80;99.90;;;;;;5078802;28;20419;-66
2024/01/25 07:47:58;;;;;;;17.73;5.73;;;8.70;99.90;;;;;;5078768;28;20210;-68
2024/01/25 07:50:23;;;;;;;24.83;6.07;;;8.70;99.90;;;;;;5075980;28;20461;-68
2024/01/25 07:52:49;;;;;;;23.00;5.77;;;8.70;99.90;;;;;;5075563;28;20209;-68
2024/01/25 07:55:18;;;;;;;20.20;5.73;;;8.60;99.90;;;;;;5076146;28;20169;-68
2024/01/25 07:57:44;;;;;;;23.50;5.50;;;8.70;99.90;;;;;;5075368;28;20435;-67
2024/01/25 08:00:10;;;;;;;22.10;6.03;;;8.80;99.90;;;;;;5075681;28;20396;-64
2024/01/25 08:02:36;;;;;;;13.70;5.00;;;8.90;99.90;;;;;;5075675;28;20172;-66
2024/01/25 08:05:02;;;;;;;19.10;5.57;;;9.00;99.90;;;;;;5075541;28;20408;-66
2024/01/25 08:07:28;;;;;;;22.83;6.30;;;9.10;99.90;;;;;;5075732;28;20431;-66
2024/01/25 08:09:57;;;;;;;13.45;5.72;;;9.00;99.90;;;;;;5074410;28;20473;-65
2024/01/25 08:12:26;;;;;;;14.60;5.10;;;9.20;99.90;;;;;;5075471;28;20167;-66
2024/01/25 08:14:52;;;;;;;18.53;6.00;;;9.20;99.90;;;;;;5075575;28;20773;-66
2024/01/25 08:17:17;;;;;;;17.40;4.73;;;9.10;99.90;;;;;;5075307;28;20428;-66
2024/01/25 08:19:43;;;;;;;17.30;5.73;;;9.30;99.90;;;;;;5075503;28;20213;-65
2024/01/25 08:22:09;;;;;;;13.90;6.40;;;9.50;99.90;;;;;;5075502;28;20162;-66
2024/01/25 08:24:35;;;;;;;15.37;5.53;;;9.50;99.90;;;;;;5075271;28;20250;-65
2024/01/25 08:27:01;;;;;;;10.23;3.93;;;9.50;99.90;;;;;;5075362;28;20818;-65
2024/01/25 08:29:26;;;;;;;17.57;5.00;;;9.50;99.90;;;;;;5075015;28;20183;-65
2024/01/25 08:31:52;;;;;;;16.60;4.93;;;9.70;99.90;;;;;;5075209;28;20172;-67
2024/01/25 08:34:17;;;;;;;17.30;4.50;;;9.80;99.90;;;;;;5074839;28;20183;-67
2024/01/25 08:36:44;;;;;;;15.67;5.40;;;9.80;99.90;;;;;;5079310;28;20163;-68
2024/01/25 08:39:09;;;;;;;20.03;6.10;;;9.90;99.90;;;;;;5080978;28;20545;-62
2024/01/25 08:41:35;;;;;;;18.63;4.83;;;9.90;99.90;;;;;;5074755;28;20453;-65
2024/01/25 08:44:01;;;;;;;14.37;5.40;;;9.80;99.90;;;;;;5074717;28;20258;-64
2024/01/25 08:46:26;;;;;;;13.70;5.47;;;9.80;99.90;;;;;;5075017;28;20551;-63
2024/01/25 08:48:52;;;;;;;14.23;4.43;;;9.90;99.90;;;;;;5075283;28;20549;-63
2024/01/25 08:51:17;;;;;;;23.07;4.63;;;9.90;99.90;;;;;;5074599;28;20596;-65
2024/01/25 08:53:43;;;;;;;11.80;3.80;;;10.00;99.90;;;;;;5074505;28;20664;-66
2024/01/25 08:56:09;;;;;;;14.93;4.60;;;10.00;99.90;;;;;;5074870;28;20165;-64
2024/01/25 08:58:35;;;;;;;17.20;4.43;;;9.80;99.90;;;;;;5074565;28;20181;-65
2024/01/25 09:01:00;;;;;;;13.40;4.50;;;9.80;99.90;;;;;;5073967;28;20411;-64
2024/01/25 09:03:26;;;;;;;15.53;4.50;;;9.80;99.90;;;;;;5074248;28;20215;-67
2024/01/25 09:05:52;;;;;;;14.07;4.70;;;9.90;99.90;;;;;;5073918;28;20542;-67
2024/01/25 09:08:17;;;;;;;19.23;4.70;;;10.10;99.90;;;;;;5074155;28;20566;-67
2024/01/25 09:10:44;;;;;;;13.03;4.70;;;10.20;99.90;;;;;;5073973;28;20264;-66
2024/01/25 09:13:10;;;;;;;11.47;4.77;;;10.20;99.90;;;;;;5074010;28;20176;-66
2024/01/25 09:15:35;;;;;;;17.13;5.10;;;10.00;99.90;;;;;;5074286;28;20472;-65
2024/01/25 09:18:01;;;;;;;14.67;4.80;;;10.10;99.90;;;;;;5074188;28;20284;-67
2024/01/25 09:20:26;;;;;;;10.17;4.33;;;10.30;99.90;;;;;;5073892;28;20165;-66
2024/01/25 09:22:55;;;;;;;14.70;5.20;;;10.50;99.90;;;;;;5073664;28;20173;-65
2024/01/25 09:25:21;;;;;;;15.43;5.47;;;10.40;99.90;;;;;;5073773;28;20177;-64
2024/01/25 09:27:47;;;;;;;13.87;4.50;;;10.40;99.90;;;;;;5073919;28;20910;-65
2024/01/25 09:30:13;;;;;;;8.23;3.90;;;10.60;99.90;;;;;;5074371;28;20451;-64
2024/01/25 09:32:39;;;;;;;16.00;4.43;;;10.60;99.90;;;;;;5073584;28;20173;-67
2024/01/25 09:35:05;;;;;;;12.07;4.53;;;10.70;99.90;;;;;;5073520;28;20475;-65
2024/01/25 09:37:30;;;;;;;12.33;3.83;;;10.80;99.90;;;;;;5059361;28;20270;-65
2024/01/25 09:39:58;;;;;;;16.05;4.45;;;10.90;99.90;;;;;;5053483;28;20396;-65
2024/01/25 09:42:24;;;;;;;17.17;4.13;;;10.90;99.90;;;;;;5056148;28;20645;-65
2024/01/25 09:44:52;;;;;;;13.03;4.50;;;11.10;99.90;;;;;;5073414;28;20409;-66
2024/01/25 09:47:21;;;;;;;17.87;3.93;;;10.90;99.90;;;;;;5073743;28;20208;-63
2024/01/25 09:49:47;;;;;;;12.93;4.97;;;11.10;99.90;;;;;;5073176;28;20527;-66
2024/01/25 09:52:13;;;;;;;17.30;5.27;;;11.20;99.90;;;;;;5073232;28;20404;-66
2024/01/25 09:54:39;;;;;;;12.90;3.90;;;11.30;99.90;;;;;;5073338;28;20411;-65
2024/01/25 09:57:19;;;;;;;13.10;4.90;;;11.60;99.90;;;;;;5073323;28;20400;-65
2024/01/25 09:59:45;;;;;;;16.63;5.40;;;11.50;99.90;;;;;;5073252;28;20828;-65
2024/01/25 10:02:11;;;;;;;15.27;5.03;;;11.40;99.90;;;;;;5073359;28;20415;-65
2024/01/25 10:04:37;;;;;;;14.83;4.50;;;11.50;99.90;;;;;;5072894;28;20411;-67
2024/01/25 10:07:03;;;;;;;13.93;4.50;;;11.40;99.90;;;;;;5071062;28;20406;-67
2024/01/25 10:09:38;;;;;;;18.50;4.37;;;11.40;99.90;;;;;;5073089;28;20453;-66
2024/01/25 10:12:05;;;;;;;14.23;4.47;;;11.40;99.90;;;;;;5072938;28;20384;-66
2024/01/25 10:14:30;;;;;;;15.93;4.83;;;11.40;99.90;;;;;;5072774;28;20443;-67
2024/01/25 10:16:57;;;;;;;12.50;3.93;;;11.50;99.90;;;;;;5073008;28;20443;-65
2024/01/25 10:19:23;;;;;;;16.50;4.73;;;11.50;99.90;;;;;;5072932;28;20747;-67
2024/01/25 10:21:49;;;;;;;13.20;3.60;;;11.40;99.90;;;;;;5072839;28;20493;-66
2024/01/25 10:24:15;;;;;;;11.40;4.10;;;11.40;99.90;;;;;;5073441;28;20206;-66
2024/01/25 10:26:42;;;;;;;13.50;3.87;;;11.70;99.90;;;;;;5072899;28;20419;-66
2024/01/25 10:29:08;;;;;;;9.27;3.30;;;11.80;99.90;;;;;;5072778;28;20231;-66
2024/01/25 10:31:40;;;;;;;18.97;5.00;;;11.70;99.90;;;;;;5072848;28;20394;-66
2024/01/25 10:34:06;;;;;;;15.80;4.00;;;11.60;99.90;;;;;;5073140;28;20377;-67
2024/01/25 10:36:34;;;;;;;11.13;4.03;;;11.60;99.90;;;;;;5072691;28;20430;-66
2024/01/25 10:39:04;;;;;;;11.17;4.80;;;11.70;99.90;;;;;;5072701;28;20509;-66
2024/01/25 10:41:32;;;;;;;12.93;4.57;;;11.90;99.90;;;;;;5073134;28;20392;-66
2024/01/25 10:43:57;;;;;;;8.53;4.10;;;12.10;99.90;;;;;;5072692;28;20635;-66
2024/01/25 10:46:24;;;;;;;12.90;4.20;;;12.20;99.90;;;;;;5072756;28;20936;-66
2024/01/25 10:48:51;;;;;;;13.87;3.80;;;12.10;99.90;;;;;;5072823;28;20285;-65
2024/01/25 10:51:18;;;;;;;13.00;5.37;;;12.00;99.90;;;;;;5072715;28;20402;-65
2024/01/25 10:53:44;;;;;;;15.23;5.37;;;12.10;99.90;;;;;;5073675;28;20585;-67
2024/01/25 10:56:11;;;;;;;15.77;4.77;;;12.30;99.90;;;;;;5072514;28;20394;-68
2024/01/25 10:58:41;;;;;;;12.63;4.30;;;12.30;99.90;;;;;;5072670;28;20413;-68
2024/01/25 11:01:13;;;;;;;12.23;4.20;;;12.50;99.90;;;;;;5072512;28;20909;-66
2024/01/25 11:03:40;;;;;;;10.90;3.37;;;12.60;99.90;;;;;;5072703;28;20764;-67
2024/01/25 11:06:11;;;;;;;13.23;4.97;;;12.90;99.90;;;;;;5072709;28;20412;-67
2024/01/25 11:08:38;;;;;;;15.20;4.37;;;13.20;99.90;;;;;;5072345;28;20416;-66
2024/01/25 11:11:10;;;;;;;13.18;3.92;;;13.50;99.90;;;;;;5071536;28;20924;-67
2024/01/25 11:13:39;;;;;;;23.77;5.93;;;13.60;99.90;;;;;;5072855;28;20170;-68
2024/01/25 11:16:29;;;;;;;12.70;5.20;;;14.50;99.90;;;;;;5054375;28;20410;-67
2024/01/25 11:19:04;;;;;;;15.50;6.28;;;14.50;99.90;;;;;;5071421;28;20460;-65
2024/01/25 11:22:03;;;;;;;15.87;4.70;;;14.40;99.90;;;;;;5072650;28;20162;-64
2024/01/25 11:24:30;;;;;;;10.80;3.73;;;14.00;99.90;;;;;;5030125;28;20425;-66
2024/01/25 11:26:55;;;;;;;12.03;5.37;;;14.40;99.90;;;;;;5075871;28;20442;-66
2024/01/25 11:29:25;;;;;;;12.40;4.37;;;15.20;99.90;;;;;;5076276;28;20493;-66
2024/01/25 11:31:51;;;;;;;9.47;3.60;;;15.60;99.90;;;;;;5076332;28;20154;-64
2024/01/25 11:34:21;;;;;;;11.87;4.50;;;15.80;99.90;;;;;;5076277;28;20751;-66
2024/01/25 11:36:47;;;;;;;8.10;3.80;;;16.30;99.90;;;;;;5076201;28;20230;-65
2024/01/25 11:39:15;;;;;;;13.50;4.07;;;16.90;99.10;;;;;;5075903;28;20423;-65
2024/01/25 11:41:42;;;;;;;15.23;4.67;;;15.50;99.90;;;;;;5066580;28;20416;-64
2024/01/25 11:44:09;;;;;;;16.93;4.40;;;16.20;99.90;;;;;;5056065;28;20401;-65
2024/01/25 11:46:35;;;;;;;10.13;3.23;;;16.80;99.10;;;;;;5068315;28;20727;-64
2024/01/25 11:49:01;;;;;;;11.17;4.20;;;16.90;98.70;;;;;;5075465;28;20448;-66
2024/01/25 11:51:27;;;;;;;10.90;3.70;;;17.30;97.90;;;;;;5075756;28;20166;-65
2024/01/25 11:53:53;;;;;;;14.67;3.67;;;17.50;96.60;;;;;;5075640;28;20404;-64
2024/01/25 11:56:30;;;;;;;12.90;3.70;;;17.10;96.50;;;;;;5075546;28;20170;-64
2024/01/25 11:58:56;;;;;;;11.90;2.77;;;16.80;96.40;;;;;;5075837;28;20193;-65
2024/01/25 12:01:24;;;;;;;10.10;3.07;;;17.50;96.10;;;;;;5075777;28;20404;-65
2024/01/25 12:03:50;;;;;;;7.80;3.73;;;18.00;95.20;;;;;;5075755;28;20748;-65
2024/01/25 12:06:16;;;;;;;10.70;2.90;;;18.50;93.90;;;;;;5075468;28;20408;-66
2024/01/25 12:08:42;;;;;;;9.50;3.60;;;18.90;93.70;;;;;;5075399;28;20840;-66
2024/01/25 12:11:11;;;;;;;7.23;2.97;;;19.60;92.60;;;;;;5075286;28;20436;-65
2024/01/25 12:13:42;;;;;;;10.97;3.40;;;20.70;88.60;;;;;;5075412;28;20166;-65
2024/01/25 12:16:09;;;;;;;8.53;3.50;;;21.00;85.70;;;;;;5075424;28;20401;-66
2024/01/25 12:18:35;;;;;;;9.63;3.50;;;20.40;84.00;;;;;;5074712;28;20407;-65
2024/01/25 12:21:02;;;;;;;9.70;3.60;;;20.30;84.30;;;;;;5075269;28;20174;-64
2024/01/25 12:23:32;;;;;;;7.87;3.20;;;20.30;85.70;;;;;;5075322;28;20400;-65
2024/01/25 12:26:03;;;;;;;7.57;3.10;;;20.40;84.60;;;;;;5075200;28;20450;-64
2024/01/25 12:28:30;;;;;;;7.73;3.20;;;19.70;87.00;;;;;;5074981;28;20413;-65
2024/01/25 12:30:56;;;;;;;7.60;2.73;;;19.20;88.50;;;;;;5075161;28;20435;-65
2024/01/25 12:33:22;;;;;;;8.95;3.10;;;18.80;90.20;;;;;;5075142;28;20410;-65
2024/01/25 12:35:47;;;;;;;10.20;4.00;;;19.10;90.20;;;;;;5072957;28;20391;-64